KLDM/LDM METAR and TAF weather

Enter ICAO airport designator
Station Type Date Time Source
KLDM METAR 2021/03/05 00:15 UTC NOAA

KLDM 050015Z AUTO 36004KT 10SM CLR M03/M09 A3036 RMK AO2 T10271090


Station Type Date Time Source
KLDM Decoded METAR 2021/03/05 00:15 UTC NOAA

Ludington, Mason County Airport, MI, United States (KLDM) 43-58N 86-24W
Mar 04, 2021 - 07:15 PM EST / 2021.03.05 0015 UTC
Wind: from the N (360 degrees) at 5 MPH (4 KT):0
Visibility: 10 mile(s):0
Sky conditions: clear
Temperature: 27.1 F (-2.7 C)
Windchill: 21 F (-6 C):1
Dew Point: 15.8 F (-9.0 C)
Relative Humidity: 61%
Pressure (altimeter): 30.36 in. Hg (1028 hPa)
ob: KLDM 050015Z AUTO 36004KT 10SM CLR M03/M09 A3036 RMK AO2 T10271090
cycle: 0

Station Type Date Time Source
KLDM TAF UTC NOAA

Error!

Example: see airport list